sensor_id;sensor_type;location;lat;lon;timestamp;pressure;altitude;pressure_sealevel;temperature;humidity
35903;BME280;50775;44.112;12.316;2022-07-30T00:01:10;101029.47;;;30.62;46.18
35903;BME280;50775;44.112;12.316;2022-07-30T00:03:35;101028.44;;;30.63;46.08
35903;BME280;50775;44.112;12.316;2022-07-30T00:06:01;101023.84;;;30.63;45.82
35903;BME280;50775;44.112;12.316;2022-07-30T00:08:27;101030.31;;;30.62;45.69
35903;BME280;50775;44.112;12.316;2022-07-30T00:10:53;101036.59;;;30.63;45.91
35903;BME280;50775;44.112;12.316;2022-07-30T00:13:19;101028.81;;;30.60;45.78
35903;BME280;50775;44.112;12.316;2022-07-30T00:15:45;101037.19;;;30.58;45.65
35903;BME280;50775;44.112;12.316;2022-07-30T00:18:11;101037.41;;;30.57;45.91
35903;BME280;50775;44.112;12.316;2022-07-30T00:20:37;101031.50;;;30.53;46.22
35903;BME280;50775;44.112;12.316;2022-07-30T00:23:05;101026.69;;;30.55;45.90
35903;BME280;50775;44.112;12.316;2022-07-30T00:25:31;101030.28;;;30.56;46.00
35903;BME280;50775;44.112;12.316;2022-07-30T00:27:57;101025.88;;;30.55;46.06
35903;BME280;50775;44.112;12.316;2022-07-30T00:30:23;101026.69;;;30.55;46.11
35903;BME280;50775;44.112;12.316;2022-07-30T00:32:49;101041.53;;;30.53;45.75
35903;BME280;50775;44.112;12.316;2022-07-30T00:35:15;101051.16;;;30.55;45.86
35903;BME280;50775;44.112;12.316;2022-07-30T00:37:41;101051.59;;;30.52;45.93
35903;BME280;50775;44.112;12.316;2022-07-30T00:40:08;101049.69;;;30.53;45.93
35903;BME280;50775;44.112;12.316;2022-07-30T00:42:42;101052.63;;;30.51;45.71
35903;BME280;50775;44.112;12.316;2022-07-30T00:45:09;101053.25;;;30.53;45.86
35903;BME280;50775;44.112;12.316;2022-07-30T00:47:36;101052.63;;;30.51;46.22
35903;BME280;50775;44.112;12.316;2022-07-30T00:50:03;101060.16;;;30.49;46.35
35903;BME280;50775;44.112;12.316;2022-07-30T00:52:30;101048.88;;;30.52;45.79
35903;BME280;50775;44.112;12.316;2022-07-30T00:54:57;101041.34;;;30.47;46.20
35903;BME280;50775;44.112;12.316;2022-07-30T00:57:23;101046.56;;;30.49;45.83
35903;BME280;50775;44.112;12.316;2022-07-30T00:59:49;101046.34;;;30.51;45.82
35903;BME280;50775;44.112;12.316;2022-07-30T01:02:15;101049.06;;;30.51;45.87
35903;BME280;50775;44.112;12.316;2022-07-30T01:04:41;101054.09;;;30.54;46.08
35903;BME280;50775;44.112;12.316;2022-07-30T01:07:06;101056.38;;;30.50;46.21
35903;BME280;50775;44.112;12.316;2022-07-30T01:09:32;101046.78;;;30.47;45.98
35903;BME280;50775;44.112;12.316;2022-07-30T01:11:58;101052.22;;;30.47;46.03
35903;BME280;50775;44.112;12.316;2022-07-30T01:14:24;101048.03;;;30.52;46.27
35903;BME280;50775;44.112;12.316;2022-07-30T01:16:50;101044.69;;;30.49;46.08
35903;BME280;50775;44.112;12.316;2022-07-30T01:19:28;101037.16;;;30.52;45.96
35903;BME280;50775;44.112;12.316;2022-07-30T01:27:31;101033.59;;;30.51;46.13
35903;BME280;50775;44.112;12.316;2022-07-30T01:30:02;101035.69;;;30.49;45.99
35903;BME280;50775;44.112;12.316;2022-07-30T01:32:30;101040.91;;;30.51;45.94
35903;BME280;50775;44.112;12.316;2022-07-30T01:34:57;101030.69;;;30.53;45.80
35903;BME280;50775;44.112;12.316;2022-07-30T01:37:26;101031.13;;;30.56;46.10
35903;BME280;50775;44.112;12.316;2022-07-30T01:39:52;101025.88;;;30.55;46.18
35903;BME280;50775;44.112;12.316;2022-07-30T01:42:19;101023.16;;;30.55;45.67
35903;BME280;50775;44.112;12.316;2022-07-30T01:44:47;101030.47;;;30.54;46.08
35903;BME280;50775;44.112;12.316;2022-07-30T01:47:16;101019.59;;;30.54;46.13
35903;BME280;50775;44.112;12.316;2022-07-30T01:49:44;101017.72;;;30.55;45.99
35903;BME280;50775;44.112;12.316;2022-07-30T01:52:13;101015.81;;;30.55;46.11
35903;BME280;50775;44.112;12.316;2022-07-30T01:54:40;101012.09;;;30.56;45.86
35903;BME280;50775;44.112;12.316;2022-07-30T01:57:08;101007.91;;;30.60;45.72
35903;BME280;50775;44.112;12.316;2022-07-30T01:59:38;101018.63;;;30.62;45.69
35903;BME280;50775;44.112;12.316;2022-07-30T02:02:04;101010.47;;;30.62;45.80
35903;BME280;50775;44.112;12.316;2022-07-30T02:04:30;101017.31;;;30.58;45.76
35903;BME280;50775;44.112;12.316;2022-07-30T02:07:18;101007.06;;;30.60;45.91
35903;BME280;50775;44.112;12.316;2022-07-30T02:09:54;101008.13;;;30.59;45.52
35903;BME280;50775;44.112;12.316;2022-07-30T02:12:23;101005.41;;;30.59;45.79
35903;BME280;50775;44.112;12.316;2022-07-30T02:15:09;101001.59;;;30.53;45.68
35903;BME280;50775;44.112;12.316;2022-07-30T02:20:44;100998.28;;;30.58;45.72
35903;BME280;50775;44.112;12.316;2022-07-30T02:23:11;101002.06;;;30.57;45.56
35903;BME280;50775;44.112;12.316;2022-07-30T02:25:41;100998.09;;;30.59;45.79
35903;BME280;50775;44.112;12.316;2022-07-30T02:28:10;100998.09;;;30.59;45.85
35903;BME280;50775;44.112;12.316;2022-07-30T02:30:43;100996.19;;;30.60;45.71
35903;BME280;50775;44.112;12.316;2022-07-30T02:33:10;100997.25;;;30.59;45.66
35903;BME280;50775;44.112;12.316;2022-07-30T02:35:37;100994.31;;;30.60;45.72
35903;BME280;50775;44.112;12.316;2022-07-30T02:38:05;100997.91;;;30.61;45.42
35903;BME280;50775;44.112;12.316;2022-07-30T02:40:32;101001.66;;;30.60;45.59
35903;BME280;50775;44.112;12.316;2022-07-30T02:42:59;101004.56;;;30.58;45.65
35903;BME280;50775;44.112;12.316;2022-07-30T02:45:26;101005.41;;;30.59;45.56
35903;BME280;50775;44.112;12.316;2022-07-30T02:47:59;101007.06;;;30.60;45.61
35903;BME280;50775;44.112;12.316;2022-07-30T02:50:26;101004.19;;;30.61;45.68
35903;BME280;50775;44.112;12.316;2022-07-30T02:52:53;101001.25;;;30.63;45.62
35903;BME280;50775;44.112;12.316;2022-07-30T02:55:21;100998.31;;;30.64;45.69
35903;BME280;50775;44.112;12.316;2022-07-30T02:57:48;101005.00;;;30.62;45.82
35903;BME280;50775;44.112;12.316;2022-07-30T03:00:15;101001.03;;;30.64;45.72
35903;BME280;50775;44.112;12.316;2022-07-30T03:02:42;100997.50;;;30.64;45.47
35903;BME280;50775;44.112;12.316;2022-07-30T03:05:09;101008.16;;;30.65;45.45
35903;BME280;50775;44.112;12.316;2022-07-30T03:07:36;101009.41;;;30.63;45.71
35903;BME280;50775;44.112;12.316;2022-07-30T03:10:02;101007.94;;;30.67;45.61
35903;BME280;50775;44.112;12.316;2022-07-30T03:12:30;101007.94;;;30.67;45.42
35903;BME280;50775;44.112;12.316;2022-07-30T03:14:57;101007.72;;;30.68;45.47
35903;BME280;50775;44.112;12.316;2022-07-30T03:17:25;101002.72;;;30.65;45.23
35903;BME280;50775;44.112;12.316;2022-07-30T03:19:54;100999.78;;;30.67;45.26
35903;BME280;50775;44.112;12.316;2022-07-30T03:22:21;100998.75;;;30.68;45.66
35903;BME280;50775;44.112;12.316;2022-07-30T03:24:50;101003.13;;;30.69;45.58
35903;BME280;50775;44.112;12.316;2022-07-30T03:27:17;101006.06;;;30.67;45.17
35903;BME280;50775;44.112;12.316;2022-07-30T03:29:44;101003.34;;;30.67;45.60
35903;BME280;50775;44.112;12.316;2022-07-30T03:32:11;101005.84;;;30.69;45.46
35903;BME280;50775;44.112;12.316;2022-07-30T03:34:38;101003.56;;;30.66;45.50
35903;BME280;50775;44.112;12.316;2022-07-30T03:37:04;101010.03;;;30.65;45.35
35903;BME280;50775;44.112;12.316;2022-07-30T03:39:34;101009.81;;;30.66;45.30
35903;BME280;50775;44.112;12.316;2022-07-30T03:42:01;101006.91;;;30.68;45.37
35903;BME280;50775;44.112;12.316;2022-07-30T03:44:29;101009.81;;;30.66;45.54
35903;BME280;50775;44.112;12.316;2022-07-30T03:46:55;101013.38;;;30.67;45.43
35903;BME280;50775;44.112;12.316;2022-07-30T03:49:22;101016.31;;;30.65;45.33
35903;BME280;50775;44.112;12.316;2022-07-30T03:51:49;101018.63;;;30.62;45.68
35903;BME280;50775;44.112;12.316;2022-07-30T03:54:16;101014.00;;;30.62;45.77
35903;BME280;50775;44.112;12.316;2022-07-30T03:56:43;101013.34;;;30.60;45.67
35903;BME280;50775;44.112;12.316;2022-07-30T03:59:09;101010.47;;;30.62;45.55
35903;BME280;50775;44.112;12.316;2022-07-30T04:01:35;101018.41;;;30.63;45.80
35903;BME280;50775;44.112;12.316;2022-07-30T04:04:08;101025.09;;;30.61;45.57
35903;BME280;50775;44.112;12.316;2022-07-30T04:06:35;101020.66;;;30.60;45.45
35903;BME280;50775;44.112;12.316;2022-07-30T04:09:08;101016.50;;;30.57;45.84
35903;BME280;50775;44.112;12.316;2022-07-30T04:11:34;101015.66;;;30.57;45.92
35903;BME280;50775;44.112;12.316;2022-07-30T04:14:00;101021.72;;;30.59;46.00
35903;BME280;50775;44.112;12.316;2022-07-30T04:16:49;101021.09;;;30.57;45.60
35903;BME280;50775;44.112;12.316;2022-07-30T04:19:22;101026.53;;;30.57;45.84
35903;BME280;50775;44.112;12.316;2022-07-30T04:21:51;101031.75;;;30.58;45.72
35903;BME280;50775;44.112;12.316;2022-07-30T04:24:19;101038.81;;;30.53;46.04
35903;BME280;50775;44.112;12.316;2022-07-30T04:26:46;101041.53;;;30.53;45.69
35903;BME280;50775;44.112;12.316;2022-07-30T04:29:14;101044.06;;;30.54;45.96
35903;BME280;50775;44.112;12.316;2022-07-30T04:31:40;101052.22;;;30.54;45.66
35903;BME280;50775;44.112;12.316;2022-07-30T04:34:06;101053.03;;;30.55;45.98
35903;BME280;50775;44.112;12.316;2022-07-30T04:36:32;101055.75;;;30.55;45.88
35903;BME280;50775;44.112;12.316;2022-07-30T04:39:00;101062.25;;;30.54;46.09
35903;BME280;50775;44.112;12.316;2022-07-30T04:41:26;101060.38;;;30.54;45.89
35903;BME280;50775;44.112;12.316;2022-07-30T04:43:52;101064.34;;;30.52;45.87
35903;BME280;50775;44.112;12.316;2022-07-30T04:46:17;101061.19;;;30.55;45.85
35903;BME280;50775;44.112;12.316;2022-07-30T04:48:43;101064.75;;;30.55;45.92
35903;BME280;50775;44.112;12.316;2022-07-30T04:51:15;101068.53;;;30.54;45.91
35903;BME280;50775;44.112;12.316;2022-07-30T04:53:43;101069.56;;;30.53;46.01
35903;BME280;50775;44.112;12.316;2022-07-30T04:56:10;101068.34;;;30.56;46.00
35903;BME280;50775;44.112;12.316;2022-07-30T04:58:38;101079.00;;;30.57;46.00
35903;BME280;50775;44.112;12.316;2022-07-30T05:01:06;101074.78;;;30.55;46.09
35903;BME280;50775;44.112;12.316;2022-07-30T05:03:34;101072.72;;;30.57;46.03
35903;BME280;50775;44.112;12.316;2022-07-30T05:06:01;101078.16;;;30.57;45.84
35903;BME280;50775;44.112;12.316;2022-07-30T05:08:27;101088.84;;;30.58;45.62
35903;BME280;50775;44.112;12.316;2022-07-30T05:10:53;101089.22;;;30.55;45.95
35903;BME280;50775;44.112;12.316;2022-07-30T05:13:20;101101.59;;;30.58;45.82
35903;BME280;50775;44.112;12.316;2022-07-30T05:15:45;101098.66;;;30.59;45.89
35903;BME280;50775;44.112;12.316;2022-07-30T05:18:11;101101.38;;;30.59;45.88
35903;BME280;50775;44.112;12.316;2022-07-30T05:20:38;101093.44;;;30.58;45.65
35903;BME280;50775;44.112;12.316;2022-07-30T05:23:04;101100.34;;;30.60;45.55
35903;BME280;50775;44.112;12.316;2022-07-30T05:25:30;101098.66;;;30.59;46.03
35903;BME280;50775;44.112;12.316;2022-07-30T05:27:55;101114.81;;;30.61;45.60
35903;BME280;50775;44.112;12.316;2022-07-30T05:30:23;101113.75;;;30.62;45.74
35903;BME280;50775;44.112;12.316;2022-07-30T05:32:49;101109.16;;;30.62;45.97
35903;BME280;50775;44.112;12.316;2022-07-30T05:35:15;101104.75;;;30.61;45.67
35903;BME280;50775;44.112;12.316;2022-07-30T05:37:41;101102.88;;;30.62;45.58
35903;BME280;50775;44.112;12.316;2022-07-30T05:40:07;101096.59;;;30.61;46.00
35903;BME280;50775;44.112;12.316;2022-07-30T05:42:33;101093.69;;;30.63;45.48
35903;BME280;50775;44.112;12.316;2022-07-30T05:44:59;101092.00;;;30.62;45.85
35903;BME280;50775;44.112;12.316;2022-07-30T05:47:25;101099.31;;;30.61;45.48
35903;BME280;50775;44.112;12.316;2022-07-30T05:49:51;101095.78;;;30.61;45.64
35903;BME280;50775;44.112;12.316;2022-07-30T05:52:17;101099.97;;;30.63;45.81
35903;BME280;50775;44.112;12.316;2022-07-30T05:54:44;101099.50;;;30.60;45.90
35903;BME280;50775;44.112;12.316;2022-07-30T05:57:09;101097.84;;;30.59;45.73
35903;BME280;50775;44.112;12.316;2022-07-30T05:59:35;101090.50;;;30.59;45.79
35903;BME280;50775;44.112;12.316;2022-07-30T06:02:01;101096.78;;;30.60;45.67
35903;BME280;50775;44.112;12.316;2022-07-30T06:04:28;101088.25;;;30.63;45.55
35903;BME280;50775;44.112;12.316;2022-07-30T06:06:54;101094.72;;;30.62;45.48
35903;BME280;50775;44.112;12.316;2022-07-30T06:09:19;101087.41;;;30.62;45.66
35903;BME280;50775;44.112;12.316;2022-07-30T06:11:45;101097.44;;;30.62;45.69
35903;BME280;50775;44.112;12.316;2022-07-30T06:14:11;101100.34;;;30.60;45.69
35903;BME280;50775;44.112;12.316;2022-07-30T06:16:37;101098.28;;;30.62;45.39
35903;BME280;50775;44.112;12.316;2022-07-30T06:19:03;101100.16;;;30.62;45.23
35903;BME280;50775;44.112;12.316;2022-07-30T06:21:28;101099.13;;;30.63;45.34
35903;BME280;50775;44.112;12.316;2022-07-30T06:23:54;101102.03;;;30.61;45.30
35903;BME280;50775;44.112;12.316;2022-07-30T06:26:20;101099.31;;;30.61;45.49
35903;BME280;50775;44.112;12.316;2022-07-30T06:28:46;101102.88;;;30.62;45.50
35903;BME280;50775;44.112;12.316;2022-07-30T06:31:12;101109.78;;;30.64;45.52
35903;BME280;50775;44.112;12.316;2022-07-30T06:33:37;101108.75;;;30.65;45.25
35903;BME280;50775;44.112;12.316;2022-07-30T06:36:03;101099.53;;;30.66;45.54
35903;BME280;50775;44.112;12.316;2022-07-30T06:38:29;101099.75;;;30.65;45.28
35903;BME280;50775;44.112;12.316;2022-07-30T06:40:55;101104.78;;;30.68;45.51
35903;BME280;50775;44.112;12.316;2022-07-30T06:43:21;101101.41;;;30.66;45.32
35903;BME280;50775;44.112;12.316;2022-07-30T06:45:47;101103.09;;;30.67;45.31
35903;BME280;50775;44.112;12.316;2022-07-30T06:48:13;101104.56;;;30.69;45.29
35903;BME280;50775;44.112;12.316;2022-07-30T06:50:38;101108.13;;;30.70;44.88
35903;BME280;50775;44.112;12.316;2022-07-30T06:53:06;101110.41;;;30.66;45.32
35903;BME280;50775;44.112;12.316;2022-07-30T06:55:32;101104.97;;;30.66;45.20
35903;BME280;50775;44.112;12.316;2022-07-30T06:57:58;101102.06;;;30.68;45.05
35903;BME280;50775;44.112;12.316;2022-07-30T07:00:23;101101.41;;;30.66;44.94
35903;BME280;50775;44.112;12.316;2022-07-30T07:02:49;101104.78;;;30.68;44.99
35903;BME280;50775;44.112;12.316;2022-07-30T07:05:15;101106.25;;;30.70;45.26
35903;BME280;50775;44.112;12.316;2022-07-30T07:07:42;101102.06;;;30.68;45.29
35903;BME280;50775;44.112;12.316;2022-07-30T07:10:08;101099.97;;;30.70;45.22
35903;BME280;50775;44.112;12.316;2022-07-30T07:12:34;101100.16;;;30.68;45.24
35903;BME280;50775;44.112;12.316;2022-07-30T07:15:00;101091.81;;;30.70;44.89
35903;BME280;50775;44.112;12.316;2022-07-30T07:17:26;101095.38;;;30.70;45.19
35903;BME280;50775;44.112;12.316;2022-07-30T07:19:52;101099.97;;;30.70;45.03
35903;BME280;50775;44.112;12.316;2022-07-30T07:22:18;101094.09;;;30.66;45.00
35903;BME280;50775;44.112;12.316;2022-07-30T07:24:44;101098.91;;;30.71;44.73
35903;BME280;50775;44.112;12.316;2022-07-30T07:27:09;101096.00;;;30.72;44.56
35903;BME280;50775;44.112;12.316;2022-07-30T07:29:35;101097.03;;;30.65;44.96
35903;BME280;50775;44.112;12.316;2022-07-30T07:32:01;101093.25;;;30.66;44.71
35903;BME280;50775;44.112;12.316;2022-07-30T07:34:26;101090.13;;;30.69;45.09
35903;BME280;50775;44.112;12.316;2022-07-30T07:36:52;101090.34;;;30.67;44.99
35903;BME280;50775;44.112;12.316;2022-07-30T07:39:18;101092.84;;;30.69;45.09
35903;BME280;50775;44.112;12.316;2022-07-30T07:41:44;101092.84;;;30.69;44.77
35903;BME280;50775;44.112;12.316;2022-07-30T07:44:09;101098.09;;;30.70;44.73
35903;BME280;50775;44.112;12.316;2022-07-30T07:46:35;101104.16;;;30.66;44.56
35903;BME280;50775;44.112;12.316;2022-07-30T07:49:01;101103.94;;;30.67;44.46
35903;BME280;50775;44.112;12.316;2022-07-30T07:51:27;101103.94;;;30.67;44.44
35903;BME280;50775;44.112;12.316;2022-07-30T07:53:52;101098.28;;;30.69;44.82
35903;BME280;50775;44.112;12.316;2022-07-30T07:56:18;101103.53;;;30.70;44.64
35903;BME280;50775;44.112;12.316;2022-07-30T07:58:46;101103.72;;;30.69;44.71
35903;BME280;50775;44.112;12.316;2022-07-30T08:01:11;101101.00;;;30.69;44.68
35903;BME280;50775;44.112;12.316;2022-07-30T08:03:37;101093.69;;;30.69;44.73
35903;BME280;50775;44.112;12.316;2022-07-30T08:06:03;101094.72;;;30.68;44.74
35903;BME280;50775;44.112;12.316;2022-07-30T08:08:29;101096.63;;;30.68;44.76
35903;BME280;50775;44.112;12.316;2022-07-30T08:10:55;101089.50;;;30.67;44.46
35903;BME280;50775;44.112;12.316;2022-07-30T08:13:21;101095.38;;;30.70;44.46
35903;BME280;50775;44.112;12.316;2022-07-30T08:15:48;101097.44;;;30.68;44.84
35903;BME280;50775;44.112;12.316;2022-07-30T08:18:14;101098.50;;;30.67;44.51
35903;BME280;50775;44.112;12.316;2022-07-30T08:20:40;101091.19;;;30.68;44.38
35903;BME280;50775;44.112;12.316;2022-07-30T08:23:05;101094.09;;;30.66;44.83
35903;BME280;50775;44.112;12.316;2022-07-30T08:25:31;101096.63;;;30.68;44.55
35903;BME280;50775;44.112;12.316;2022-07-30T08:27:57;101098.91;;;30.71;44.26
35903;BME280;50775;44.112;12.316;2022-07-30T08:30:25;101094.72;;;30.68;44.69
35903;BME280;50775;44.112;12.316;2022-07-30T08:32:50;101099.97;;;30.70;44.49
35903;BME280;50775;44.112;12.316;2022-07-30T08:35:16;101097.44;;;30.68;44.44
35903;BME280;50775;44.112;12.316;2022-07-30T08:37:42;101108.13;;;30.70;44.23
35903;BME280;50775;44.112;12.316;2022-07-30T08:40:08;101103.09;;;30.67;44.15
35903;BME280;50775;44.112;12.316;2022-07-30T08:42:34;101101.63;;;30.71;44.13
35903;BME280;50775;44.112;12.316;2022-07-30T08:45:00;101103.72;;;30.69;44.28
35903;BME280;50775;44.112;12.316;2022-07-30T08:47:35;101113.34;;;30.65;44.09
35903;BME280;50775;44.112;12.316;2022-07-30T08:50:06;101104.94;;;30.60;44.40
35903;BME280;50775;44.112;12.316;2022-07-30T08:52:36;101108.91;;;30.57;41.97
35903;BME280;50775;44.112;12.316;2022-07-30T08:55:03;101108.00;;;30.37;42.05
35903;BME280;50775;44.112;12.316;2022-07-30T08:57:31;101114.72;;;30.47;41.98
35903;BME280;50775;44.112;12.316;2022-07-30T08:59:58;101117.09;;;30.16;42.68
35903;BME280;50775;44.112;12.316;2022-07-30T09:02:24;101113.81;;;30.27;42.55
35903;BME280;50775;44.112;12.316;2022-07-30T09:04:50;101109.19;;;30.21;43.22
35903;BME280;50775;44.112;12.316;2022-07-30T09:07:18;101121.47;;;29.82;44.09
35903;BME280;50775;44.112;12.316;2022-07-30T09:09:44;101118.75;;;30.10;42.83
35903;BME280;50775;44.112;12.316;2022-07-30T09:15:11;101113.56;;;30.22;42.35
35903;BME280;50775;44.112;12.316;2022-07-30T09:17:59;101106.88;;;30.18;42.28
35903;BME280;50775;44.112;12.316;2022-07-30T09:20:27;101106.47;;;30.21;42.71
35903;BME280;50775;44.112;12.316;2022-07-30T09:22:56;101104.38;;;30.16;43.08
35903;BME280;50775;44.112;12.316;2022-07-30T09:25:41;101104.16;;;30.18;43.23
35903;BME280;50775;44.112;12.316;2022-07-30T09:28:08;101110.03;;;30.28;42.77
35903;BME280;50775;44.112;12.316;2022-07-30T09:30:45;101106.03;;;30.11;43.64
35903;BME280;50775;44.112;12.316;2022-07-30T09:33:11;101103.72;;;30.14;43.73
35903;BME280;50775;44.112;12.316;2022-07-30T09:35:38;101104.78;;;30.20;44.09
35903;BME280;50775;44.112;12.316;2022-07-30T09:38:05;101112.94;;;30.20;44.07
35903;BME280;50775;44.112;12.316;2022-07-30T09:40:31;101103.97;;;30.26;42.57
35903;BME280;50775;44.112;12.316;2022-07-30T09:43:02;101101.66;;;30.23;42.98
35903;BME280;50775;44.112;12.316;2022-07-30T09:45:28;101108.53;;;30.12;42.88
35903;BME280;50775;44.112;12.316;2022-07-30T09:47:54;101116.63;;;30.06;43.38
35903;BME280;50775;44.112;12.316;2022-07-30T09:50:20;101099.16;;;30.22;43.27
35903;BME280;50775;44.112;12.316;2022-07-30T09:52:48;101092.81;;;30.08;43.05
35903;BME280;50775;44.112;12.316;2022-07-30T09:55:28;101102.31;;;30.25;43.27
35903;BME280;50775;44.112;12.316;2022-07-30T09:58:00;101108.00;;;30.02;43.51
35903;BME280;50775;44.112;12.316;2022-07-30T10:00:28;101099.28;;;30.07;42.95
35903;BME280;50775;44.112;12.316;2022-07-30T10:02:54;101103.94;;;30.13;43.03
35903;BME280;50775;44.112;12.316;2022-07-30T10:05:20;101098.94;;;30.16;42.39
35903;BME280;50775;44.112;12.316;2022-07-30T10:07:57;101106.03;;;30.17;41.77
35903;BME280;50775;44.112;12.316;2022-07-30T10:10:29;101107.91;;;30.17;41.96
35903;BME280;50775;44.112;12.316;2022-07-30T10:13:02;101098.50;;;30.13;42.35
35903;BME280;50775;44.112;12.316;2022-07-30T10:15:31;101100.63;;;30.24;42.16
35903;BME280;50775;44.112;12.316;2022-07-30T10:17:57;101094.38;;;30.30;42.49
35903;BME280;50775;44.112;12.316;2022-07-30T10:20:25;101093.94;;;30.27;42.79
35903;BME280;50775;44.112;12.316;2022-07-30T10:22:51;101089.56;;;30.32;42.61
35903;BME280;50775;44.112;12.316;2022-07-30T10:25:22;101091.06;;;30.35;42.73
35903;BME280;50775;44.112;12.316;2022-07-30T10:27:49;101094.00;;;30.33;42.39
35903;BME280;50775;44.112;12.316;2022-07-30T10:30:16;101088.78;;;30.38;42.52
35903;BME280;50775;44.112;12.316;2022-07-30T10:32:43;101077.28;;;30.36;42.91
35903;BME280;50775;44.112;12.316;2022-07-30T10:35:09;101081.66;;;30.37;43.00
35903;BME280;50775;44.112;12.316;2022-07-30T10:37:39;101084.38;;;30.37;42.39
35903;BME280;50775;44.112;12.316;2022-07-30T10:42:41;101082.72;;;30.36;42.72
35903;BME280;50775;44.112;12.316;2022-07-30T10:48:03;101082.50;;;30.44;42.42
35903;BME280;50775;44.112;12.316;2022-07-30T10:50:29;101076.66;;;30.41;43.08
35903;BME280;50775;44.112;12.316;2022-07-30T10:52:57;101065.16;;;30.39;42.95
35903;BME280;50775;44.112;12.316;2022-07-30T10:55:27;101063.06;;;30.41;43.00
35903;BME280;50775;44.112;12.316;2022-07-30T11:00:27;101068.69;;;30.33;42.58
35903;BME280;50775;44.112;12.316;2022-07-30T11:03:14;101059.94;;;30.37;42.61
35903;BME280;50775;44.112;12.316;2022-07-30T11:05:41;101054.28;;;30.39;42.55
35903;BME280;50775;44.112;12.316;2022-07-30T11:08:33;101062.44;;;30.45;42.66
35903;BME280;50775;44.112;12.316;2022-07-30T11:10:59;101051.38;;;30.47;42.61
35903;BME280;50775;44.112;12.316;2022-07-30T11:13:47;101053.03;;;30.48;42.52
35903;BME280;50775;44.112;12.316;2022-07-30T11:16:14;101053.25;;;30.46;42.41
35903;BME280;50775;44.112;12.316;2022-07-30T11:19:13;101057.63;;;30.47;42.63
35903;BME280;50775;44.112;12.316;2022-07-30T11:21:44;101056.81;;;30.47;42.98
35903;BME280;50775;44.112;12.316;2022-07-30T11:24:41;101047.81;;;30.46;42.65
35903;BME280;50775;44.112;12.316;2022-07-30T11:27:08;101048.84;;;30.45;42.58
35903;BME280;50775;44.112;12.316;2022-07-30T11:29:34;101043.63;;;30.51;42.54
35903;BME280;50775;44.112;12.316;2022-07-30T11:32:26;101044.25;;;30.53;42.37
35903;BME280;50775;44.112;12.316;2022-07-30T11:35:25;101049.69;;;30.46;42.67
35903;BME280;50775;44.112;12.316;2022-07-30T11:40:20;101053.47;;;30.52;43.04
35903;BME280;50775;44.112;12.316;2022-07-30T11:42:47;101051.38;;;30.54;42.42
35903;BME280;50775;44.112;12.316;2022-07-30T11:47:50;101044.47;;;30.51;43.04
35903;BME280;50775;44.112;12.316;2022-07-30T11:50:28;101034.66;;;30.50;42.75
35903;BME280;50775;44.112;12.316;2022-07-30T11:53:18;101038.81;;;30.53;42.87
35903;BME280;50775;44.112;12.316;2022-07-30T11:55:49;101038.19;;;30.51;42.79
35903;BME280;50775;44.112;12.316;2022-07-30T11:58:31;101042.38;;;30.53;42.73
35903;BME280;50775;44.112;12.316;2022-07-30T12:01:02;101028.59;;;30.55;42.92
35903;BME280;50775;44.112;12.316;2022-07-30T12:03:30;101028.59;;;30.55;42.90
35903;BME280;50775;44.112;12.316;2022-07-30T12:06:07;101032.34;;;30.54;42.84
35903;BME280;50775;44.112;12.316;2022-07-30T12:08:42;101031.31;;;30.55;42.87
35903;BME280;50775;44.112;12.316;2022-07-30T12:11:10;101018.38;;;30.57;42.69
35903;BME280;50775;44.112;12.316;2022-07-30T12:13:38;101018.75;;;30.54;42.88
35903;BME280;50775;44.112;12.316;2022-07-30T12:16:12;101015.81;;;30.55;42.79
35903;BME280;50775;44.112;12.316;2022-07-30T12:18:38;101022.13;;;30.56;42.92
35903;BME280;50775;44.112;12.316;2022-07-30T12:21:06;101015.66;;;30.57;42.99
35903;BME280;50775;44.112;12.316;2022-07-30T12:23:42;101019.41;;;30.56;43.17
35903;BME280;50775;44.112;12.316;2022-07-30T12:26:31;101018.53;;;30.55;42.88
35903;BME280;50775;44.112;12.316;2022-07-30T12:29:10;101015.19;;;30.53;43.32
35903;BME280;50775;44.112;12.316;2022-07-30T12:31:39;101015.44;;;30.58;43.24
35903;BME280;50775;44.112;12.316;2022-07-30T12:34:25;101009.16;;;30.58;43.46
35903;BME280;50775;44.112;12.316;2022-07-30T12:36:51;101010.38;;;30.55;43.29
35903;BME280;50775;44.112;12.316;2022-07-30T12:39:25;101007.69;;;30.55;43.50
35903;BME280;50775;44.112;12.316;2022-07-30T12:41:53;101013.78;;;30.57;43.47
35903;BME280;50775;44.112;12.316;2022-07-30T12:44:38;101014.22;;;30.61;43.61
35903;BME280;50775;44.112;12.316;2022-07-30T12:47:17;101021.94;;;30.57;43.61
35903;BME280;50775;44.112;12.316;2022-07-30T12:49:45;101016.50;;;30.57;43.52
35903;BME280;50775;44.112;12.316;2022-07-30T12:52:19;101023.59;;;30.58;43.50
35903;BME280;50775;44.112;12.316;2022-07-30T12:55:13;101025.09;;;30.61;43.25
35903;BME280;50775;44.112;12.316;2022-07-30T12:58:02;101028.66;;;30.61;43.71
35903;BME280;50775;44.112;12.316;2022-07-30T13:00:31;101030.53;;;30.61;43.75
35903;BME280;50775;44.112;12.316;2022-07-30T13:02:58;101031.53;;;30.60;43.61
35903;BME280;50775;44.112;12.316;2022-07-30T13:05:43;101030.53;;;30.61;43.58
35903;BME280;50775;44.112;12.316;2022-07-30T13:08:09;101036.81;;;30.61;43.79
35903;BME280;50775;44.112;12.316;2022-07-30T13:10:35;101035.97;;;30.61;43.74
35903;BME280;50775;44.112;12.316;2022-07-30T13:13:01;101040.16;;;30.63;43.40